Time;durP1;ratioP1;P1;durP2;ratioP2;P2;SDS_P1;SDS_P2;PMS_P1;PMS_P2;Temp;Humidity;BMP_temperature;BMP_pressure;BME280_temperature;BME280_humidity;BME280_pressure;Samples;Min_cycle;Max_cycle;Signal;HPM_P1;HPM_P2
2023/08/13 00:02:09;;;;;;;14.50;4.90;;;;;;;19.70;67.71;99827.42;105816;1260;73816;-68
2023/08/13 00:04:57;;;;;;;11.10;5.50;;;;;;;19.67;68.48;99834.85;105479;1262;68331;-65
2023/08/13 00:07:43;;;;;;;13.80;5.30;;;;;;;19.61;69.88;99836.86;105438;1260;73981;-66
2023/08/13 00:10:30;;;;;;;12.50;5.40;;;;;;;19.53;71.61;99828.44;105267;1264;59234;-67
2023/08/13 00:13:17;;;;;;;11.80;5.10;;;;;;;19.43;72.75;99827.25;108938;1265;58839;-67
2023/08/13 00:16:04;;;;;;;12.80;5.50;;;;;;;19.33;73.95;99817.79;109140;1260;72073;-65
2023/08/13 00:18:50;;;;;;;12.60;5.60;;;;;;;19.26;74.27;99800.52;109093;1261;66932;-64
2023/08/13 00:21:36;;;;;;;14.40;5.30;;;;;;;19.19;74.56;99791.91;109103;1257;72742;-64
2023/08/13 00:24:23;;;;;;;10.80;5.10;;;;;;;19.17;75.45;99796.86;109119;1258;61025;-65
2023/08/13 00:27:09;;;;;;;15.00;5.00;;;;;;;19.14;76.16;99802.48;109060;1258;59091;-66
2023/08/13 00:29:55;;;;;;;11.10;5.20;;;;;;;19.08;77.01;99794.16;109024;1259;72740;-64
2023/08/13 00:32:41;;;;;;;12.80;5.40;;;;;;;19.03;77.71;99794.04;109084;1260;66297;-66
2023/08/13 00:35:28;;;;;;;13.30;4.90;;;;;;;18.97;77.87;99796.02;108980;1257;73744;-66
2023/08/13 00:38:14;;;;;;;11.70;5.00;;;;;;;18.93;77.75;99791.09;109075;1258;56988;-66
2023/08/13 00:41:00;;;;;;;16.30;5.10;;;;;;;18.89;78.13;99788.08;109073;1258;58853;-64
2023/08/13 00:43:46;;;;;;;13.30;5.00;;;;;;;18.87;78.24;99790.45;109048;1261;73585;-64
2023/08/13 00:46:33;;;;;;;13.10;4.70;;;;;;;18.86;78.23;99792.73;109103;1258;66965;-64
2023/08/13 00:49:19;;;;;;;10.80;4.50;;;;;;;18.86;77.99;99790.86;108999;1263;72606;-65
2023/08/13 00:52:07;;;;;;;11.00;4.60;;;;;;;18.87;77.89;99791.91;109006;1259;58816;-65
2023/08/13 00:54:54;;;;;;;10.90;5.30;;;;;;;18.86;77.62;99792.68;109076;1259;60357;-64
2023/08/13 00:57:40;;;;;;;12.90;4.40;;;;;;;18.87;77.15;99790.29;109072;1261;72118;-65
2023/08/13 01:00:27;;;;;;;12.70;4.50;;;;;;;18.88;76.72;99790.75;108986;1258;67615;-65
2023/08/13 01:03:13;;;;;;;11.70;5.10;;;;;;;18.91;76.35;99790.52;109013;1263;72663;-65
2023/08/13 01:06:59;;;;;;;12.00;4.70;;;;;;;18.94;75.95;99791.12;108998;1259;58085;-64
2023/08/13 01:10:18;;;;;;;11.10;4.50;;;;;;;18.98;76.11;99794.55;109031;1258;61314;-65
2023/08/13 01:13:30;;;;;;;11.50;4.70;;;;;;;19.00;76.14;99793.33;109037;1260;73202;-64
2023/08/13 01:16:18;;;;;;;12.50;4.90;;;;;;;18.99;76.66;99789.21;109028;1263;67885;-66
2023/08/13 01:19:08;;;;;;;12.70;5.00;;;;;;;18.99;77.15;99782.08;109009;1261;73723;-65
2023/08/13 01:21:54;;;;;;;10.30;4.80;;;;;;;18.95;77.94;99778.56;108986;1264;58299;-65
2023/08/13 01:24:40;;;;;;;13.60;4.90;;;;;;;18.92;78.68;99775.39;109037;1260;61364;-64
2023/08/13 01:27:44;;;;;;;11.10;4.80;;;;;;;18.87;79.24;99769.98;109036;1258;72266;-65
2023/08/13 01:31:24;;;;;;;10.90;5.20;;;;;;;18.81;80.27;99771.27;109042;1260;68838;-66
2023/08/13 01:34:12;;;;;;;12.50;5.00;;;;;;;18.71;81.83;99771.77;108670;1265;73807;-64
2023/08/13 01:36:59;;;;;;;11.60;5.20;;;;;;;18.64;82.69;99766.88;108660;1266;60628;-64
2023/08/13 01:39:45;;;;;;;11.80;5.40;;;;;;;18.56;83.62;99760.63;108646;1265;60025;-65
2023/08/13 01:42:34;;;;;;;11.30;5.20;;;;;;;18.50;84.34;99759.15;108667;1266;70869;-65
2023/08/13 01:45:22;;;;;;;11.60;4.90;;;;;;;18.43;85.33;99749.70;108716;1266;67638;-65
2023/08/13 01:48:08;;;;;;;12.00;5.20;;;;;;;18.36;86.73;99742.80;108681;1267;72749;-64
2023/08/13 01:50:55;;;;;;;13.10;5.10;;;;;;;18.27;87.90;99742.17;108668;1265;59354;-65
2023/08/13 01:53:41;;;;;;;12.00;5.10;;;;;;;18.20;88.72;99743.02;108704;1265;61756;-64
2023/08/13 01:56:28;;;;;;;10.40;5.10;;;;;;;18.14;89.64;99740.30;108673;1266;71367;-65
2023/08/13 01:59:17;;;;;;;14.40;5.70;;;;;;;18.09;90.05;99732.80;108640;1266;69010;-64
2023/08/13 02:02:04;;;;;;;11.40;5.40;;;;;;;18.06;90.10;99735.50;108705;1265;72617;-65
2023/08/13 02:04:50;;;;;;;10.70;5.30;;;;;;;18.02;91.36;99736.23;108685;1265;57227;-65
2023/08/13 02:07:36;;;;;;;13.20;5.40;;;;;;;18.00;91.54;99734.19;108564;1266;59347;-65
2023/08/13 02:10:22;;;;;;;9.70;4.90;;;;;;;17.96;92.07;99732.15;108785;1259;72302;-66
2023/08/13 02:13:08;;;;;;;10.30;5.20;;;;;;;17.95;92.58;99738.17;109040;1260;66511;-66
2023/08/13 02:16:01;;;;;;;11.30;5.00;;;;;;;17.95;92.59;99733.13;108985;1260;72545;-65
2023/08/13 02:18:48;;;;;;;11.90;5.50;;;;;;;17.97;92.87;99735.32;109030;1259;59245;-64
2023/08/13 02:21:35;;;;;;;9.60;4.80;;;;;;;17.98;92.78;99736.35;109035;1260;60301;-64
2023/08/13 02:24:21;;;;;;;11.30;5.30;;;;;;;17.99;93.07;99736.77;109061;1260;73318;-67
2023/08/13 02:27:08;;;;;;;12.40;5.20;;;;;;;18.01;93.37;99734.96;109036;1259;66886;-66
2023/08/13 02:29:54;;;;;;;12.40;5.30;;;;;;;18.02;92.94;99736.25;109022;1260;72441;-67
2023/08/13 02:32:40;;;;;;;10.50;5.20;;;;;;;18.04;93.25;99730.70;109018;1259;60353;-64
2023/08/13 02:35:26;;;;;;;10.40;5.70;;;;;;;18.05;92.97;99733.75;109075;1260;60215;-65
2023/08/13 02:38:12;;;;;;;10.30;4.60;;;;;;;18.08;92.82;99733.67;109024;1258;72187;-64
2023/08/13 02:40:58;;;;;;;9.40;4.70;;;;;;;18.10;93.00;99729.25;109040;1259;66872;-66
2023/08/13 02:43:54;;;;;;;10.50;5.30;;;;;;;18.13;93.18;99728.77;109116;1257;72549;-65
2023/08/13 02:46:41;;;;;;;12.50;5.20;;;;;;;18.16;92.97;99734.38;109078;1257;59635;-66
2023/08/13 02:49:27;;;;;;;10.30;5.10;;;;;;;18.16;93.14;99737.19;109114;1257;60284;-65
2023/08/13 02:52:13;;;;;;;10.10;5.00;;;;;;;18.17;92.93;99737.13;109138;1257;70708;-65
2023/08/13 02:55:00;;;;;;;13.80;5.20;;;;;;;18.18;92.90;99740.76;108956;1259;67890;-65
2023/08/13 02:57:46;;;;;;;10.70;4.90;;;;;;;18.16;92.72;99741.13;109079;1257;71439;-64
2023/08/13 03:00:53;;;;;;;11.40;4.50;;;;;;;18.13;92.58;99745.42;109038;1259;58972;-65
2023/08/13 03:03:39;;;;;;;9.80;5.60;;;;;;;18.10;92.23;99738.95;108986;1257;61569;-65
2023/08/13 03:06:39;;;;;;;9.40;5.40;;;;;;;18.08;92.27;99735.66;109072;1257;70950;-64
2023/08/13 03:09:25;;;;;;;11.50;5.10;;;;;;;18.05;92.01;99738.30;109042;1257;66372;-65
2023/08/13 03:12:12;;;;;;;9.90;5.20;;;;;;;18.02;91.86;99734.50;109135;1257;72451;-64
2023/08/13 03:14:58;;;;;;;11.50;5.40;;;;;;;17.97;92.17;99728.10;109046;1257;59134;-64
2023/08/13 03:17:44;;;;;;;12.00;5.70;;;;;;;17.96;92.20;99726.23;109141;1257;59986;-64
2023/08/13 03:20:31;;;;;;;9.70;5.50;;;;;;;17.91;92.72;99719.55;109064;1257;73287;-65
2023/08/13 03:23:17;;;;;;;11.70;5.60;;;;;;;17.88;93.03;99720.74;109092;1257;65749;-64
2023/08/13 03:26:04;;;;;;;9.00;4.90;;;;;;;17.86;93.20;99724.18;109044;1259;72747;-65
2023/08/13 03:28:50;;;;;;;10.60;5.80;;;;;;;17.86;93.78;99726.07;109003;1260;58582;-65
2023/08/13 03:31:38;;;;;;;10.80;5.70;;;;;;;17.87;94.42;99724.52;109063;1259;60316;-66
2023/08/13 03:34:37;;;;;;;10.40;5.10;;;;;;;17.89;94.50;99724.61;109060;1260;72031;-64
2023/08/13 03:37:23;;;;;;;10.80;5.20;;;;;;;17.94;94.11;99731.15;109044;1259;67924;-65
2023/08/13 03:40:09;;;;;;;9.90;4.70;;;;;;;17.97;93.94;99731.98;109106;1258;71460;-65
2023/08/13 03:42:56;;;;;;;10.20;4.90;;;;;;;18.02;94.34;99731.61;109014;1260;59562;-66
2023/08/13 03:45:43;;;;;;;10.70;5.50;;;;;;;18.07;94.97;99733.77;109070;1261;58740;-65
2023/08/13 03:48:29;;;;;;;9.80;5.20;;;;;;;18.11;94.43;99732.95;109081;1260;73214;-65
2023/08/13 03:51:15;;;;;;;10.70;5.30;;;;;;;18.12;94.53;99735.20;109039;1260;67926;-67
2023/08/13 03:54:02;;;;;;;11.20;5.50;;;;;;;18.14;94.19;99738.32;109047;1259;72681;-66
2023/08/13 03:56:55;;;;;;;12.20;5.10;;;;;;;18.16;94.47;99743.63;109029;1259;59765;-66
2023/08/13 03:59:41;;;;;;;8.80;5.10;;;;;;;18.20;94.27;99745.69;109066;1259;59079;-65
2023/08/13 04:02:38;;;;;;;9.90;5.00;;;;;;;18.25;94.07;99749.14;109069;1257;71019;-66
2023/08/13 04:05:25;;;;;;;8.80;4.50;;;;;;;18.32;93.60;99755.27;109055;1257;68075;-66
2023/08/13 04:08:11;;;;;;;10.80;5.30;;;;;;;18.37;93.55;99753.14;109101;1257;73505;-67
2023/08/13 04:10:57;;;;;;;9.80;4.70;;;;;;;18.41;93.43;99751.23;109076;1257;59481;-65
2023/08/13 04:13:45;;;;;;;9.80;5.00;;;;;;;18.43;93.12;99748.14;109056;1257;61075;-65
2023/08/13 04:16:31;;;;;;;10.00;4.90;;;;;;;18.45;93.06;99746.96;109099;1259;73078;-65
2023/08/13 04:19:18;;;;;;;8.50;5.00;;;;;;;18.50;92.54;99744.58;109008;1258;66901;-64
2023/08/13 04:22:05;;;;;;;11.00;5.00;;;;;;;18.53;92.33;99745.19;109025;1260;72628;-65
2023/08/13 04:24:51;;;;;;;9.00;5.00;;;;;;;18.56;92.07;99745.16;108876;1259;60534;-65
2023/08/13 04:27:38;;;;;;;9.70;5.00;;;;;;;18.60;91.96;99741.81;108993;1257;60237;-67
2023/08/13 04:30:25;;;;;;;9.70;4.70;;;;;;;18.64;91.69;99742.36;109019;1259;72076;-67
2023/08/13 04:33:11;;;;;;;11.20;5.50;;;;;;;18.68;91.54;99745.01;109072;1258;68740;-64
2023/08/13 04:35:58;;;;;;;9.50;4.60;;;;;;;18.77;91.13;99747.77;108937;1258;72618;-66
2023/08/13 04:38:46;;;;;;;9.90;5.00;;;;;;;18.86;90.86;99753.17;108973;1258;56950;-64
2023/08/13 04:41:32;;;;;;;10.30;5.10;;;;;;;18.96;90.61;99753.46;108927;1258;60359;-66
2023/08/13 04:44:19;;;;;;;10.30;4.80;;;;;;;19.02;90.43;99751.81;109051;1258;70739;-65
2023/08/13 04:47:05;;;;;;;9.70;5.10;;;;;;;19.08;90.36;99752.77;109029;1258;68959;-65
2023/08/13 04:49:52;;;;;;;9.50;4.80;;;;;;;19.15;90.13;99753.35;109041;1258;72722;-64
2023/08/13 04:52:39;;;;;;;8.60;4.30;;;;;;;19.25;89.95;99754.04;108939;1258;59450;-64
2023/08/13 04:55:25;;;;;;;9.90;4.70;;;;;;;19.34;89.95;99758.29;108962;1258;60894;-65
2023/08/13 04:58:11;;;;;;;8.70;4.80;;;;;;;19.42;90.19;99753.46;108987;1259;72149;-64
2023/08/13 05:00:58;;;;;;;9.60;4.90;;;;;;;19.51;90.15;99755.09;108987;1259;67920;-65
2023/08/13 05:03:45;;;;;;;9.10;4.30;;;;;;;19.59;90.29;99761.13;108892;1258;72618;-66
2023/08/13 05:06:31;;;;;;;9.90;4.60;;;;;;;19.66;90.50;99763.52;108977;1259;60494;-67
2023/08/13 05:09:18;;;;;;;11.90;4.50;;;;;;;19.72;90.57;99762.20;109005;1259;60205;-66
2023/08/13 05:12:06;;;;;;;10.70;4.40;;;;;;;19.75;91.30;99761.53;108969;1260;73328;-67
2023/08/13 05:14:53;;;;;;;8.80;4.30;;;;;;;19.79;91.38;99760.11;109043;1258;67627;-66
2023/08/13 05:17:39;;;;;;;10.00;4.60;;;;;;;19.80;91.71;99763.83;109003;1258;72693;-64
2023/08/13 05:20:25;;;;;;;8.30;3.80;;;;;;;19.81;91.74;99761.77;108991;1259;59497;-66
2023/08/13 05:23:12;;;;;;;8.50;4.50;;;;;;;19.84;91.87;99763.73;109045;1258;60208;-64
2023/08/13 05:25:59;;;;;;;7.60;4.20;;;;;;;19.87;91.73;99764.80;109043;1258;72751;-66
2023/08/13 05:28:45;;;;;;;8.30;4.50;;;;;;;19.90;91.62;99769.23;109028;1258;67716;-64
2023/08/13 05:31:31;;;;;;;8.50;4.50;;;;;;;19.92;91.66;99773.75;108988;1258;72673;-67
2023/08/13 05:34:19;;;;;;;8.10;4.60;;;;;;;19.96;91.91;99774.98;108954;1258;59282;-66
2023/08/13 05:37:06;;;;;;;7.70;4.60;;;;;;;20.10;91.88;99766.55;109047;1258;61216;-67
2023/08/13 05:39:53;;;;;;;8.80;4.60;;;;;;;20.36;90.67;99770.14;108977;1258;72085;-67
2023/08/13 05:42:40;;;;;;;8.40;4.90;;;;;;;20.40;90.27;99773.67;108988;1259;66720;-66
2023/08/13 05:45:27;;;;;;;8.60;4.10;;;;;;;20.47;90.19;99775.70;109051;1257;72495;-66
2023/08/13 05:48:13;;;;;;;8.20;4.60;;;;;;;20.79;89.45;99777.30;109016;1258;57794;-66
2023/08/13 05:50:59;;;;;;;10.10;4.90;;;;;;;21.36;87.61;99779.98;109024;1258;61362;-70
2023/08/13 05:53:46;;;;;;;8.50;4.10;;;;;;;21.83;85.09;99782.58;109006;1258;72545;-65
2023/08/13 05:56:32;;;;;;;7.80;4.20;;;;;;;22.12;83.69;99782.86;108944;1258;67928;-68
2023/08/13 05:59:21;;;;;;;7.50;4.20;;;;;;;22.43;81.70;99783.20;109029;1258;72764;-66
2023/08/13 06:02:07;;;;;;;8.10;4.10;;;;;;;23.26;78.36;99787.75;109055;1258;57813;-66
2023/08/13 06:04:54;;;;;;;7.70;3.30;;;;;;;24.14;73.99;99782.25;109077;1257;60236;-67
2023/08/13 06:07:40;;;;;;;7.80;3.60;;;;;;;25.04;70.36;99781.17;109045;1259;71829;-65
2023/08/13 06:10:26;;;;;;;7.60;2.90;;;;;;;25.84;67.19;99776.61;109035;1258;68795;-66
2023/08/13 06:13:13;;;;;;;7.00;3.30;;;;;;;26.37;65.00;99781.15;108956;1259;73729;-67
2023/08/13 06:15:59;;;;;;;6.70;3.00;;;;;;;26.71;62.70;99780.66;109075;1257;57896;-67
2023/08/13 06:18:46;;;;;;;6.90;3.00;;;;;;;26.51;62.36;99788.69;108997;1257;60081;-66
2023/08/13 06:21:32;;;;;;;6.60;3.10;;;;;;;26.97;60.52;99789.38;109067;1257;73066;-64
2023/08/13 06:24:19;;;;;;;6.40;3.10;;;;;;;27.76;58.51;99798.43;109002;1257;66500;-65
2023/08/13 06:27:06;;;;;;;7.60;3.10;;;;;;;28.17;57.08;99799.23;109081;1257;72748;-66
2023/08/13 06:29:53;;;;;;;6.30;3.00;;;;;;;28.39;55.19;99802.72;109018;1257;57062;-66
2023/08/13 06:32:57;;;;;;;7.20;2.80;;;;;;;28.38;54.90;99804.13;109098;1257;60352;-66
2023/08/13 06:35:47;;;;;;;6.50;2.70;;;;;;;28.64;53.49;99808.14;109109;1257;71993;-67
2023/08/13 06:38:34;;;;;;;7.30;2.90;;;;;;;28.98;53.15;99812.59;109096;1257;68410;-68
2023/08/13 06:41:20;;;;;;;6.20;2.40;;;;;;;29.02;52.17;99814.58;108901;1257;235652;-67
2023/08/13 06:44:19;;;;;;;6.70;2.30;;;;;;;28.51;53.35;99819.01;109101;1257;58005;-68
2023/08/13 06:47:07;;;;;;;7.10;3.10;;;;;;;27.81;54.89;99826.40;109110;1257;59380;-69
2023/08/13 06:49:55;;;;;;;6.60;2.50;;;;;;;27.05;56.68;99821.02;108990;1257;73035;-69
2023/08/13 06:52:42;;;;;;;6.40;2.80;;;;;;;26.51;58.66;99828.19;109092;1257;67805;-67
2023/08/13 06:55:28;;;;;;;6.10;2.70;;;;;;;26.39;59.14;99831.90;108982;1258;73787;-70
2023/08/13 06:58:16;;;;;;;6.80;3.20;;;;;;;26.03;59.76;99834.45;108992;1258;57321;-68
2023/08/13 07:01:03;;;;;;;6.20;2.80;;;;;;;25.89;60.60;99828.77;109002;1259;61090;-68
2023/08/13 07:03:49;;;;;;;6.60;3.00;;;;;;;27.35;57.40;99818.03;109076;1259;73877;-70
2023/08/13 07:06:36;;;;;;;6.50;2.80;;;;;;;28.90;52.66;99819.56;109037;1258;67897;-69
2023/08/13 07:09:24;;;;;;;6.30;2.50;;;;;;;30.17;48.28;99821.14;108962;1258;72758;-70
2023/08/13 07:12:11;;;;;;;6.30;2.40;;;;;;;31.34;45.40;99823.60;109046;1258;57786;-70
2023/08/13 07:14:56;;;;;;;5.80;2.00;;;;;;;32.28;42.52;99830.57;109004;1259;58942;-69
2023/08/13 07:17:43;;;;;;;6.60;2.10;;;;;;;33.08;40.26;99821.75;108998;1259;73185;-69
2023/08/13 07:20:29;;;;;;;5.20;1.70;;;;;;;33.85;38.26;99824.73;108951;1259;66419;-71
2023/08/13 07:23:15;;;;;;;5.10;1.60;;;;;;;34.26;36.30;99823.45;108976;1260;72567;-68
2023/08/13 07:26:01;;;;;;;5.50;1.80;;;;;;;34.69;35.29;99827.27;108962;1260;58167;-71
2023/08/13 07:28:47;;;;;;;5.50;1.90;;;;;;;35.08;34.47;99826.24;108980;1260;59335;-70
2023/08/13 07:31:36;;;;;;;5.50;1.80;;;;;;;35.27;33.57;99829.91;109048;1258;71564;-68
2023/08/13 07:34:23;;;;;;;5.10;1.60;;;;;;;35.70;33.39;99824.88;109023;1258;68197;-69
2023/08/13 07:37:09;;;;;;;5.60;1.70;;;;;;;36.16;32.56;99830.90;108997;1258;72955;-68
2023/08/13 07:39:59;;;;;;;6.00;1.80;;;;;;;36.62;31.66;99832.92;108991;1258;57276;-69
2023/08/13 07:42:47;;;;;;;5.60;1.70;;;;;;;37.06;30.70;99840.04;108956;1258;61200;-73
2023/08/13 07:45:34;;;;;;;5.60;1.50;;;;;;;37.36;30.50;99834.74;108975;1258;73063;-69
2023/08/13 07:48:32;;;;;;;5.40;1.40;;;;;;;37.37;29.96;99838.45;109035;1258;66505;-69
2023/08/13 07:51:23;;;;;;;5.20;1.60;;;;;;;37.01;30.17;99842.52;109027;1258;72814;-71
2023/08/13 07:54:20;;;;;;;5.30;1.50;;;;;;;36.89;29.90;99839.48;108958;1258;59458;-69
2023/08/13 07:57:24;;;;;;;6.50;1.70;;;;;;;37.14;30.21;99834.53;109029;1258;60611;-69
2023/08/13 08:00:16;;;;;;;5.00;1.50;;;;;;;37.55;29.88;99830.69;109005;1258;71638;-70
2023/08/13 08:03:08;;;;;;;5.50;1.40;;;;;;;37.73;29.61;99835.95;109008;1258;68392;-70
2023/08/13 08:06:04;;;;;;;4.90;1.50;;;;;;;37.85;29.24;99832.98;108991;1258;71492;-68
2023/08/13 08:08:58;;;;;;;5.20;1.40;;;;;;;38.22;28.86;99835.24;108970;1258;57538;-72
2023/08/13 08:11:44;;;;;;;5.50;1.50;;;;;;;38.50;28.17;99837.54;109000;1259;60391;-70
2023/08/13 08:14:31;;;;;;;5.70;1.60;;;;;;;37.99;28.25;99838.77;108986;1258;73494;-70
2023/08/13 08:17:21;;;;;;;5.90;1.90;;;;;;;37.54;28.88;99839.70;108858;1258;68954;-70
2023/08/13 08:20:19;;;;;;;5.20;1.60;;;;;;;37.81;29.22;99845.60;108941;1258;73545;-72
2023/08/13 08:23:15;;;;;;;5.10;1.60;;;;;;;37.80;28.62;99841.33;108904;1258;57409;-69
2023/08/13 08:26:06;;;;;;;6.30;1.60;;;;;;;37.09;29.84;99853.13;108824;1258;58848;-70
2023/08/13 08:28:58;;;;;;;6.40;1.80;;;;;;;35.88;31.55;99848.81;109027;1258;71995;-72
2023/08/13 08:31:51;;;;;;;6.30;1.90;;;;;;;35.39;32.45;99849.05;108952;1258;68714;-72
2023/08/13 08:34:47;;;;;;;6.60;2.20;;;;;;;33.89;34.72;99860.95;108973;1258;72212;-72
2023/08/13 08:37:36;;;;;;;6.10;2.20;;;;;;;32.70;36.62;99870.23;109000;1258;58028;-71
2023/08/13 08:40:32;;;;;;;5.40;1.80;;;;;;;33.10;36.75;99864.74;109116;1258;60936;-72
2023/08/13 08:43:30;;;;;;;6.00;2.00;;;;;;;34.05;34.56;99853.29;109001;1258;73133;-68
2023/08/13 08:46:18;;;;;;;6.40;2.00;;;;;;;33.99;34.42;99862.45;108832;1258;66704;-70
2023/08/13 08:49:07;;;;;;;6.70;2.20;;;;;;;33.14;35.66;99870.31;109024;1258;71129;-70
2023/08/13 08:52:03;;;;;;;6.40;2.30;;;;;;;32.09;37.71;99873.02;108942;1258;59299;-68
2023/08/13 08:55:11;;;;;;;6.40;2.70;;;;;;;31.04;39.91;99870.15;108986;1258;58973;-67
2023/08/13 08:58:07;;;;;;;7.30;2.50;;;;;;;30.13;41.84;99868.46;109075;1258;74023;-66
2023/08/13 09:01:05;;;;;;;6.90;2.60;;;;;;;29.83;43.06;99866.77;108985;1258;68996;-69
2023/08/13 09:03:52;;;;;;;6.40;2.40;;;;;;;30.81;41.57;99863.90;109013;1258;73423;-67
2023/08/13 09:06:59;;;;;;;5.70;2.50;;;;;;;32.10;39.51;99863.63;109016;1258;57303;-68
2023/08/13 09:09:53;;;;;;;6.60;2.60;;;;;;;31.98;39.35;99868.13;108914;1258;59551;-71
2023/08/13 09:12:41;;;;;;;6.30;2.40;;;;;;;31.42;40.30;99867.82;108971;1258;71838;-70
2023/08/13 09:15:57;;;;;;;6.70;2.20;;;;;;;30.65;41.19;99867.98;109144;1257;66670;-69
2023/08/13 09:18:50;;;;;;;6.70;2.30;;;;;;;29.76;43.09;99863.01;109009;1258;73157;-71
2023/08/13 09:22:01;;;;;;;6.30;2.70;;;;;;;29.13;44.36;99875.64;108987;1258;58864;-69
2023/08/13 09:24:51;;;;;;;7.80;2.50;;;;;;;29.25;44.10;99878.88;109105;1258;60544;-68
2023/08/13 09:27:43;;;;;;;8.10;2.50;;;;;;;29.22;44.33;99875.31;108953;1257;71932;-69
2023/08/13 09:30:34;;;;;;;8.40;2.50;;;;;;;29.01;44.78;99873.56;109014;1258;69323;-64
2023/08/13 09:33:27;;;;;;;6.20;2.20;;;;;;;29.86;42.89;99872.84;108973;1259;72757;-65
2023/08/13 09:36:18;;;;;;;5.90;2.20;;;;;;;30.59;41.31;99872.03;108916;1259;58033;-62
2023/08/13 09:39:08;;;;;;;6.20;2.50;;;;;;;30.81;40.68;99868.48;108998;1259;61189;-61
2023/08/13 09:42:08;;;;;;;6.00;2.00;;;;;;;30.73;40.30;99869.94;108962;1260;72296;-67
2023/08/13 09:45:02;;;;;;;6.20;2.40;;;;;;;30.09;40.63;99873.74;108971;1259;68262;-64
2023/08/13 09:47:55;;;;;;;5.90;2.10;;;;;;;30.85;39.99;99867.77;108915;1259;72735;-66
2023/08/13 09:50:43;;;;;;;5.80;2.40;;;;;;;31.64;38.76;99872.55;108898;1259;58455;-64
2023/08/13 09:53:35;;;;;;;5.90;2.00;;;;;;;32.73;36.40;99882.58;108990;1259;59066;-65
2023/08/13 09:56:27;;;;;;;5.50;1.70;;;;;;;33.18;34.96;99878.39;108913;1260;74458;-64
2023/08/13 09:59:16;;;;;;;7.10;2.20;;;;;;;33.01;34.72;99881.54;109016;1260;68157;-63
2023/08/13 10:02:11;;;;;;;7.80;2.00;;;;;;;32.16;36.19;99891.13;108955;1260;71741;-64
2023/08/13 10:05:07;;;;;;;7.40;2.30;;;;;;;31.57;36.80;99891.98;108989;1260;57373;-65
2023/08/13 10:07:54;;;;;;;7.20;2.00;;;;;;;32.02;36.01;99895.95;108983;1259;60292;-65
2023/08/13 10:10:41;;;;;;;6.00;1.90;;;;;;;32.77;34.51;99901.00;109006;1260;74049;-64
2023/08/13 10:13:28;;;;;;;5.80;1.90;;;;;;;32.63;34.13;99901.34;108993;1260;68917;-63
2023/08/13 10:16:15;;;;;;;5.50;1.80;;;;;;;32.30;34.41;99899.30;108978;1260;72814;-64
2023/08/13 10:19:05;;;;;;;5.10;1.70;;;;;;;32.12;34.59;99905.74;108983;1259;58146;-65
2023/08/13 10:21:57;;;;;;;6.60;2.10;;;;;;;32.31;34.42;99904.52;108885;1259;60667;-63
2023/08/13 10:24:43;;;;;;;6.20;2.20;;;;;;;31.67;35.47;99899.73;109015;1259;73088;-64
2023/08/13 10:27:42;;;;;;;6.10;2.10;;;;;;;31.16;36.62;99900.95;109096;1258;66544;-65
2023/08/13 10:30:28;;;;;;;6.00;1.80;;;;;;;30.64;37.80;99905.25;109011;1258;71527;-64
2023/08/13 10:33:15;;;;;;;5.90;1.90;;;;;;;30.11;38.93;99908.77;109086;1258;57702;-63
2023/08/13 10:36:09;;;;;;;6.60;2.20;;;;;;;30.53;38.57;99910.26;109025;1260;60916;-66
2023/08/13 10:38:55;;;;;;;6.90;2.10;;;;;;;31.38;37.12;99910.17;108954;1259;72924;-63
2023/08/13 10:41:41;;;;;;;6.30;1.80;;;;;;;31.88;35.88;99904.05;108991;1260;67745;-66
2023/08/13 10:44:32;;;;;;;5.10;1.50;;;;;;;32.52;34.27;99914.16;108941;1260;71259;-69
2023/08/13 10:47:20;;;;;;;5.10;1.50;;;;;;;31.54;35.08;99922.68;108988;1259;57688;-71
2023/08/13 10:50:15;;;;;;;5.10;1.50;;;;;;;30.61;36.48;99922.63;108959;1258;59072;-68
2023/08/13 10:53:11;;;;;;;6.00;2.10;;;;;;;29.95;38.49;99926.59;108999;1258;72778;-68
2023/08/13 10:56:00;;;;;;;5.90;2.30;;;;;;;30.28;38.70;99926.67;109068;1259;68240;-68
2023/08/13 10:58:47;;;;;;;5.90;2.30;;;;;;;30.49;38.59;99927.88;108998;1258;73768;-70
2023/08/13 11:01:33;;;;;;;5.70;1.90;;;;;;;30.89;37.97;99930.09;108969;1259;57856;-68
2023/08/13 11:04:20;;;;;;;5.90;1.80;;;;;;;31.29;37.04;99927.46;108943;1259;59113;-69
2023/08/13 11:07:07;;;;;;;5.70;1.90;;;;;;;31.91;35.91;99929.21;108998;1259;73974;-65
2023/08/13 11:09:54;;;;;;;5.60;1.80;;;;;;;32.74;34.78;99930.40;108995;1258;68755;-68
2023/08/13 11:12:41;;;;;;;6.20;1.50;;;;;;;33.80;33.29;99923.13;109035;1258;71410;-69
2023/08/13 11:15:30;;;;;;;5.40;1.50;;;;;;;34.45;30.70;99925.72;108994;1259;57196;-70
2023/08/13 11:18:18;;;;;;;5.50;1.60;;;;;;;35.27;29.73;99928.70;108987;1259;61585;-69
2023/08/13 11:21:05;;;;;;;4.80;1.30;;;;;;;34.82;29.58;99935.73;108987;1258;73001;-69
2023/08/13 11:23:52;;;;;;;5.30;1.60;;;;;;;34.89;29.01;99936.55;109029;1259;67822;-68
2023/08/13 11:26:41;;;;;;;5.50;1.40;;;;;;;35.19;28.60;99936.98;108975;1258;73726;-68
2023/08/13 11:29:28;;;;;;;4.70;1.40;;;;;;;35.18;28.46;99936.66;108941;1257;57734;-67
2023/08/13 11:32:14;;;;;;;5.50;1.50;;;;;;;34.72;28.32;99938.16;109123;1257;58842;-67
2023/08/13 11:35:03;;;;;;;5.70;1.70;;;;;;;34.10;30.10;99939.50;109002;1258;72838;-70
2023/08/13 11:37:50;;;;;;;5.20;1.50;;;;;;;33.33;32.54;99946.97;109006;1258;68982;-69
2023/08/13 11:40:37;;;;;;;6.60;1.70;;;;;;;31.97;34.61;99942.73;109017;1258;71377;-67
2023/08/13 11:43:29;;;;;;;6.40;1.40;;;;;;;31.70;34.57;99937.02;108990;1258;57777;-69
2023/08/13 11:46:15;;;;;;;5.40;1.30;;;;;;;31.64;34.68;99937.74;108963;1258;59052;-69
2023/08/13 11:49:01;;;;;;;4.80;1.50;;;;;;;31.16;35.43;99935.91;108988;1258;71920;-70
2023/08/13 11:51:49;;;;;;;6.30;1.80;;;;;;;30.82;35.66;99935.84;108980;1258;67915;-69
2023/08/13 11:54:36;;;;;;;5.50;1.60;;;;;;;30.53;36.92;99940.09;108982;1258;72192;-70
2023/08/13 11:57:23;;;;;;;8.20;1.80;;;;;;;29.95;37.89;99941.88;108956;1258;57797;-68
2023/08/13 12:00:12;;;;;;;5.60;1.80;;;;;;;29.36;39.42;99951.85;109015;1258;59077;-69
2023/08/13 12:02:59;;;;;;;7.20;2.10;;;;;;;28.85;40.33;99955.36;109003;1258;73092;-71
2023/08/13 12:05:45;;;;;;;6.30;1.80;;;;;;;28.77;41.30;99952.88;108958;1258;67745;-72
2023/08/13 12:08:32;;;;;;;6.00;1.60;;;;;;;28.76;40.71;99962.36;108974;1258;73547;-68
2023/08/13 12:11:18;;;;;;;5.50;1.70;;;;;;;28.56;40.62;99965.36;109008;1258;57413;-69
2023/08/13 12:14:06;;;;;;;8.10;1.60;;;;;;;28.50;41.30;99967.27;109011;1259;58952;-69
2023/08/13 12:16:52;;;;;;;5.50;1.60;;;;;;;28.47;41.67;99972.09;108989;1258;73432;-73
2023/08/13 12:19:38;;;;;;;5.40;1.60;;;;;;;28.19;41.72;99978.21;108960;1257;66591;-68
2023/08/13 12:22:25;;;;;;;5.70;1.70;;;;;;;27.76;42.09;99987.48;109093;1257;71161;-71
2023/08/13 12:25:11;;;;;;;5.30;1.70;;;;;;;27.51;42.95;99981.98;109090;1257;57325;-69
2023/08/13 12:27:58;;;;;;;5.40;1.70;;;;;;;27.47;42.77;99985.14;109057;1257;60224;-70
2023/08/13 12:30:44;;;;;;;5.20;1.60;;;;;;;27.19;42.76;99978.87;109080;1257;71818;-68
2023/08/13 12:33:31;;;;;;;5.50;1.70;;;;;;;27.03;43.13;99978.96;109032;1258;68166;-68
2023/08/13 12:36:17;;;;;;;5.70;1.70;;;;;;;26.87;43.72;99979.45;109107;1257;71259;-69
2023/08/13 12:39:04;;;;;;;6.70;1.90;;;;;;;26.74;44.55;99972.09;109089;1257;57791;-69
2023/08/13 12:41:50;;;;;;;6.00;1.80;;;;;;;26.73;44.82;99974.03;109075;1257;60193;-69
2023/08/13 12:44:37;;;;;;;5.90;1.80;;;;;;;26.74;45.47;99973.89;109144;1257;71702;-69
2023/08/13 12:47:23;;;;;;;6.30;1.70;;;;;;;26.71;45.27;99967.66;109107;1257;68966;-68
2023/08/13 12:50:09;;;;;;;6.30;1.70;;;;;;;26.63;44.79;99971.89;109001;1257;71579;-71
2023/08/13 12:52:57;;;;;;;5.70;1.50;;;;;;;26.79;44.83;99969.55;109049;1257;57260;-68
2023/08/13 12:55:43;;;;;;;5.30;1.80;;;;;;;26.80;44.49;99973.95;108939;1259;61149;-67
2023/08/13 12:58:31;;;;;;;5.90;1.80;;;;;;;26.59;45.10;99978.70;108961;1259;72777;-68
2023/08/13 13:01:19;;;;;;;5.10;1.40;;;;;;;26.41;45.59;99971.83;108944;1259;66737;-68
2023/08/13 13:04:06;;;;;;;6.30;1.70;;;;;;;26.32;46.30;99974.44;108928;1259;73475;-71